createdAt,value
2022-08-21T00:00:49.957Z,3.15
2022-08-21T00:03:17.411Z,3.22
2022-08-21T00:05:51.123Z,3.13
2022-08-21T00:08:19.257Z,3.00
2022-08-21T00:10:46.937Z,3.38
2022-08-21T00:13:14.702Z,3.08
2022-08-21T00:15:46.289Z,2.88
2022-08-21T00:18:14.238Z,2.92
2022-08-21T00:20:42.557Z,2.60
2022-08-21T00:23:10.437Z,3.15
2022-08-21T00:25:38.289Z,2.85
2022-08-21T00:28:07.590Z,3.50
2022-08-21T00:30:35.101Z,3.00
2022-08-21T00:33:03.373Z,3.10
2022-08-21T00:35:32.738Z,3.75
2022-08-21T00:38:00.911Z,3.33
2022-08-21T00:40:30.812Z,2.70
2022-08-21T00:42:58.521Z,3.47
2022-08-21T00:45:26.351Z,2.88
2022-08-21T00:47:56.355Z,3.30
2022-08-21T00:50:24.706Z,3.10
2022-08-21T00:52:53.833Z,3.35
2022-08-21T00:55:22.253Z,3.13
2022-08-21T00:57:52.896Z,3.15
2022-08-21T01:00:22.747Z,3.55
2022-08-21T01:02:50.102Z,2.97
2022-08-21T01:05:18.057Z,3.72
2022-08-21T01:07:46.256Z,2.80
2022-08-21T01:10:23.773Z,3.20
2022-08-21T01:12:52.794Z,4.60
2022-08-21T01:15:21.339Z,3.60
2022-08-21T01:17:50.138Z,2.72
2022-08-21T01:20:17.772Z,3.38
2022-08-21T01:22:45.056Z,3.63
2022-08-21T01:25:16.159Z,3.42
2022-08-21T01:27:43.936Z,3.35
2022-08-21T01:30:30.733Z,3.42
2022-08-21T01:32:58.871Z,3.30
2022-08-21T01:35:26.243Z,3.78
2022-08-21T01:37:53.600Z,3.70
2022-08-21T01:40:21.436Z,3.25
2022-08-21T01:42:49.672Z,3.33
2022-08-21T01:45:17.772Z,3.33
2022-08-21T01:47:45.492Z,3.05
2022-08-21T01:50:14.541Z,3.42
2022-08-21T01:52:42.083Z,3.42
2022-08-21T01:55:11.098Z,3.38
2022-08-21T01:57:38.496Z,3.30
2022-08-21T02:00:07.008Z,3.70
2022-08-21T02:02:34.349Z,2.90
2022-08-21T02:05:01.724Z,3.30
2022-08-21T02:07:28.992Z,3.38
2022-08-21T02:09:56.429Z,3.30
2022-08-21T02:12:25.071Z,3.20
2022-08-21T02:14:52.382Z,3.33
2022-08-21T02:17:20.031Z,2.70
2022-08-21T02:19:47.501Z,3.65
2022-08-21T02:22:14.793Z,3.05
2022-08-21T02:24:54.746Z,3.40
2022-08-21T02:27:26.241Z,3.53
2022-08-21T02:29:54.825Z,2.78
2022-08-21T02:32:22.566Z,3.28
2022-08-21T02:34:50.062Z,3.08
2022-08-21T02:37:17.719Z,3.38
2022-08-21T02:39:45.192Z,3.60
2022-08-21T02:42:12.550Z,3.60
2022-08-21T02:44:39.878Z,3.30
2022-08-21T02:47:07.437Z,3.30
2022-08-21T02:49:34.772Z,3.20
2022-08-21T02:52:02.100Z,3.20
2022-08-21T02:54:29.423Z,3.53
2022-08-21T02:56:56.814Z,3.28
2022-08-21T02:59:24.094Z,3.90
2022-08-21T03:01:51.805Z,3.35
2022-08-21T03:04:19.431Z,3.90
2022-08-21T03:06:46.759Z,3.78
2022-08-21T03:09:14.176Z,3.63
2022-08-21T03:11:41.634Z,3.22
2022-08-21T03:14:09.341Z,3.78
2022-08-21T03:16:36.649Z,3.45
2022-08-21T03:19:04.517Z,3.72
2022-08-21T03:21:31.844Z,3.78
2022-08-21T03:23:59.343Z,4.18
2022-08-21T03:26:31.400Z,3.65
2022-08-21T03:28:59.685Z,3.70
2022-08-21T03:31:31.839Z,3.65
2022-08-21T03:33:59.867Z,4.00
2022-08-21T03:36:27.356Z,3.97
2022-08-21T03:38:54.940Z,3.80
2022-08-21T03:41:22.268Z,3.83
2022-08-21T03:43:49.597Z,3.78
2022-08-21T03:46:16.931Z,3.53
2022-08-21T03:48:44.518Z,3.80
2022-08-21T03:51:11.966Z,4.68
2022-08-21T03:53:42.470Z,3.85
2022-08-21T03:56:09.785Z,3.72
2022-08-21T03:58:37.258Z,4.07
2022-08-21T04:01:05.743Z,4.05
2022-08-21T04:03:33.338Z,3.97
2022-08-21T04:06:00.649Z,3.92
2022-08-21T04:08:28.052Z,3.70
2022-08-21T04:10:57.110Z,3.95
2022-08-21T04:13:24.609Z,3.80
2022-08-21T04:15:52.060Z,4.10
2022-08-21T04:18:19.631Z,3.85
2022-08-21T04:20:50.518Z,4.22
2022-08-21T04:23:23.394Z,4.07
2022-08-21T04:25:52.006Z,4.22
2022-08-21T04:28:19.467Z,4.68
2022-08-21T04:30:47.002Z,4.80
2022-08-21T04:33:14.471Z,4.85
2022-08-21T04:35:43.143Z,3.67
2022-08-21T04:38:10.788Z,3.85
2022-08-21T04:40:38.343Z,4.05
2022-08-21T04:43:07.392Z,4.18
2022-08-21T04:45:42.487Z,3.67
2022-08-21T04:50:46.937Z,4.80
2022-08-21T04:53:16.253Z,4.15
2022-08-21T04:55:44.712Z,3.97
2022-08-21T04:58:13.708Z,3.80
2022-08-21T05:00:41.886Z,3.80
2022-08-21T05:03:09.714Z,3.95
2022-08-21T05:05:37.303Z,3.92
2022-08-21T05:08:05.139Z,4.13
2022-08-21T05:10:33.944Z,4.03
2022-08-21T05:13:02.249Z,4.25
2022-08-21T05:15:31.863Z,4.10
2022-08-21T05:18:01.505Z,4.05
2022-08-21T05:20:29.976Z,5.70
2022-08-21T05:22:57.667Z,4.70
2022-08-21T05:25:25.900Z,4.82
2022-08-21T05:27:55.514Z,4.45
2022-08-21T05:30:25.641Z,4.13
2022-08-21T05:32:57.800Z,4.20
2022-08-21T05:35:25.318Z,3.47
2022-08-21T05:37:52.662Z,4.30
2022-08-21T05:40:22.999Z,4.03
2022-08-21T05:42:55.002Z,3.75
2022-08-21T05:45:43.206Z,3.88
2022-08-21T05:48:24.493Z,4.13
2022-08-21T05:50:52.876Z,3.95
2022-08-21T05:53:21.264Z,4.15
2022-08-21T05:55:48.789Z,3.60
2022-08-21T05:58:17.296Z,3.40
2022-08-21T06:00:45.886Z,3.78
2022-08-21T06:03:14.471Z,3.78
2022-08-21T06:05:42.188Z,3.13
2022-08-21T06:08:09.527Z,3.70
2022-08-21T06:10:36.975Z,3.17
2022-08-21T06:13:04.414Z,3.83
2022-08-21T06:15:32.050Z,3.40
2022-08-21T06:17:59.316Z,3.17
2022-08-21T06:20:26.897Z,3.85
2022-08-21T06:22:54.198Z,2.88
2022-08-21T06:25:22.022Z,3.30
2022-08-21T06:27:51.917Z,3.03
2022-08-21T06:30:19.625Z,3.17
2022-08-21T06:32:47.084Z,3.30
2022-08-21T06:35:14.489Z,2.90
2022-08-21T06:37:41.960Z,2.70
2022-08-21T06:40:12.811Z,2.80
2022-08-21T06:42:42.920Z,2.75
2022-08-21T06:45:12.022Z,3.05
2022-08-21T06:47:40.311Z,3.28
2022-08-21T06:50:09.726Z,2.85
2022-08-21T06:52:41.221Z,2.72
2022-08-21T06:55:09.648Z,2.88
2022-08-21T06:57:37.199Z,2.30
2022-08-21T07:00:10.546Z,2.70
2022-08-21T07:02:41.575Z,2.50
2022-08-21T07:05:18.159Z,2.63
2022-08-21T07:07:47.595Z,2.47
2022-08-21T07:10:22.202Z,2.42
2022-08-21T07:13:01.020Z,2.88
2022-08-21T07:15:32.459Z,2.25
2022-08-21T07:18:01.912Z,2.85
2022-08-21T07:20:30.788Z,2.92
2022-08-21T07:23:03.878Z,2.72
2022-08-21T07:25:31.583Z,3.00
2022-08-21T07:27:59.393Z,3.17
2022-08-21T07:30:28.738Z,3.60
2022-08-21T07:33:02.945Z,4.63
2022-08-21T07:35:32.571Z,4.32
2022-08-21T07:38:04.791Z,4.40
2022-08-21T07:41:10.824Z,5.78
2022-08-21T07:43:49.337Z,5.30
2022-08-21T07:46:26.404Z,5.55
2022-08-21T07:49:02.447Z,5.70
2022-08-21T07:51:34.606Z,6.80
2022-08-21T07:54:17.361Z,7.53
2022-08-21T07:56:50.731Z,7.30
2022-08-21T07:59:28.575Z,8.05
2022-08-21T08:02:00.973Z,8.80
2022-08-21T08:04:33.553Z,8.38
2022-08-21T08:07:09.630Z,9.40
2022-08-21T08:09:47.140Z,7.45
2022-08-21T08:12:26.978Z,9.55
2022-08-21T08:15:04.630Z,9.23
2022-08-21T08:17:39.100Z,9.02
2022-08-21T08:20:14.040Z,7.75
2022-08-21T08:25:24.115Z,7.85
2022-08-21T08:27:57.769Z,6.75
2022-08-21T08:30:33.210Z,7.25
2022-08-21T08:33:07.565Z,7.25
2022-08-21T08:35:41.425Z,6.20
2022-08-21T08:38:15.793Z,6.10
2022-08-21T08:40:51.651Z,6.85
2022-08-21T08:43:24.261Z,4.63
2022-08-21T08:46:22.787Z,6.05
2022-08-21T08:49:21.130Z,4.57
2022-08-21T09:01:40.913Z,3.30
2022-08-21T09:07:34.632Z,3.35
2022-08-21T09:10:35.686Z,3.42
2022-08-21T09:13:19.647Z,3.50
2022-08-21T09:16:17.254Z,3.08
2022-08-21T09:18:48.401Z,2.67
2022-08-21T09:21:22.667Z,2.80
2022-08-21T09:24:12.100Z,2.75
2022-08-21T09:26:49.011Z,2.95
2022-08-21T09:29:25.253Z,2.85
2022-08-21T09:31:54.125Z,3.47
2022-08-21T09:34:35.146Z,2.45
2022-08-21T09:37:03.977Z,2.90
2022-08-21T09:39:39.883Z,3.80
2022-08-21T09:42:11.194Z,3.55
2022-08-21T09:44:46.441Z,3.70
2022-08-21T09:47:14.841Z,4.05
2022-08-21T09:49:45.547Z,3.97
2022-08-21T09:52:24.194Z,4.75
2022-08-21T09:55:04.676Z,3.75
2022-08-21T09:57:50.467Z,4.00
2022-08-21T10:00:33.146Z,3.88
2022-08-21T10:03:22.446Z,4.10
2022-08-21T10:06:12.235Z,3.83
2022-08-21T10:08:41.374Z,4.45
2022-08-21T10:11:17.253Z,4.20
2022-08-21T10:13:51.386Z,5.00
2022-08-21T10:16:31.731Z,4.97
2022-08-21T10:19:15.221Z,4.68
2022-08-21T10:21:58.386Z,3.72
2022-08-21T10:24:34.458Z,4.50
2022-08-21T10:30:28.811Z,4.28
2022-08-21T10:33:11.232Z,4.65
2022-08-21T10:36:15.868Z,4.18
2022-08-21T10:39:17.843Z,3.97
2022-08-21T10:41:50.376Z,4.57
2022-08-21T10:44:43.629Z,4.28
2022-08-21T10:47:18.597Z,4.50
2022-08-21T10:50:05.376Z,4.60
2022-08-21T10:52:51.085Z,4.30
2022-08-21T10:55:30.804Z,4.95
2022-08-21T10:58:10.935Z,5.18
2022-08-21T11:00:43.153Z,4.80
2022-08-21T11:03:19.507Z,4.78
2022-08-21T11:05:56.631Z,3.70
2022-08-21T11:08:24.853Z,4.82
2022-08-21T11:10:59.303Z,4.30
2022-08-21T11:13:46.595Z,4.20
2022-08-21T11:16:16.933Z,4.50
2022-08-21T11:18:51.288Z,4.03
2022-08-21T11:21:18.569Z,3.90
2022-08-21T11:23:59.730Z,3.88
2022-08-21T11:26:31.265Z,4.00
2022-08-21T11:29:08.590Z,3.78
2022-08-21T11:31:51.158Z,3.60
2022-08-21T11:34:21.436Z,3.42
2022-08-21T11:36:57.608Z,3.88
2022-08-21T11:39:28.497Z,3.78
2022-08-21T11:42:14.689Z,3.67
2022-08-21T11:45:04.982Z,4.40
2022-08-21T11:47:48.198Z,3.60
2022-08-21T11:50:29.733Z,3.80
2022-08-21T11:53:11.667Z,3.88
2022-08-21T11:55:44.021Z,3.63
2022-08-21T11:58:30.085Z,3.20
2022-08-21T12:00:59.951Z,3.40
2022-08-21T12:03:27.307Z,2.97
2022-08-21T12:06:02.829Z,3.25
2022-08-21T12:08:30.155Z,3.50
2022-08-21T12:11:02.205Z,2.90
2022-08-21T12:13:40.563Z,3.53
2022-08-21T12:16:15.910Z,3.10
2022-08-21T12:18:44.120Z,3.20
2022-08-21T12:21:27.892Z,3.00
2022-08-21T12:24:03.495Z,3.15
2022-08-21T12:26:37.882Z,2.70
2022-08-21T12:29:24.204Z,2.60
2022-08-21T12:31:53.559Z,2.55
2022-08-21T12:34:21.813Z,2.75
2022-08-21T12:36:51.605Z,3.13
2022-08-21T12:39:27.123Z,3.00
2022-08-21T12:42:14.474Z,3.30
2022-08-21T12:44:44.859Z,3.20
2022-08-21T12:47:17.603Z,3.20
2022-08-21T12:49:53.381Z,3.00
2022-08-21T12:52:34.557Z,2.63
2022-08-21T12:55:04.850Z,3.08
2022-08-21T12:57:32.674Z,2.70
2022-08-21T13:00:02.104Z,2.58
2022-08-21T13:02:38.344Z,2.45
2022-08-21T13:05:07.156Z,2.40
2022-08-21T13:07:36.479Z,2.38
2022-08-21T13:10:07.311Z,2.40
2022-08-21T13:12:35.367Z,2.40
2022-08-21T13:15:06.493Z,2.50
2022-08-21T13:17:38.770Z,2.60
2022-08-21T13:20:21.748Z,2.40
2022-08-21T13:22:49.246Z,2.63
2022-08-21T13:25:18.295Z,2.58
2022-08-21T13:27:49.064Z,2.97
2022-08-21T13:30:21.276Z,2.88
2022-08-21T13:32:50.722Z,3.15
2022-08-21T13:35:21.521Z,2.85
2022-08-21T13:37:50.005Z,2.20
2022-08-21T13:40:40.817Z,2.53
2022-08-21T13:43:13.552Z,2.00
2022-08-21T13:45:40.931Z,2.05
2022-08-21T13:48:08.326Z,1.75
2022-08-21T13:50:37.121Z,1.73
2022-08-21T13:53:06.994Z,2.55
2022-08-21T13:55:44.469Z,2.70
2022-08-21T13:58:13.313Z,2.22
2022-08-21T14:00:48.182Z,1.80
2022-08-21T14:03:25.257Z,1.48
2022-08-21T14:05:52.541Z,1.70
2022-08-21T14:08:30.285Z,1.80
2022-08-21T14:10:58.702Z,1.90
2022-08-21T14:13:31.997Z,1.98
2022-08-21T14:16:02.763Z,2.28
2022-08-21T14:18:31.419Z,2.13
2022-08-21T14:21:06.487Z,1.75
2022-08-21T14:23:33.981Z,1.33
2022-08-21T14:26:02.929Z,1.50
2022-08-21T14:28:39.781Z,1.80
2022-08-21T14:31:16.325Z,1.80
2022-08-21T14:33:44.264Z,1.67
2022-08-21T14:36:11.837Z,1.67
2022-08-21T14:38:41.503Z,1.83
2022-08-21T14:41:24.850Z,1.75
2022-08-21T14:44:05.745Z,2.00
2022-08-21T14:46:45.845Z,1.92
2022-08-21T14:49:23.217Z,1.90
2022-08-21T14:51:54.794Z,1.45
2022-08-21T14:54:22.524Z,1.42
2022-08-21T14:56:58.677Z,1.92
2022-08-21T14:59:27.467Z,1.85
2022-08-21T15:01:57.551Z,1.73
2022-08-21T15:04:25.519Z,1.40
2022-08-21T15:06:53.126Z,2.15
2022-08-21T15:09:20.732Z,5.75
2022-08-21T15:11:48.123Z,1.70
2022-08-21T15:14:26.169Z,1.88
2022-08-21T15:16:53.797Z,1.67
2022-08-21T15:19:21.495Z,1.48
2022-08-21T15:21:49.342Z,2.10
2022-08-21T15:24:17.010Z,1.65
2022-08-21T15:26:45.239Z,1.70
2022-08-21T15:29:12.894Z,1.90
2022-08-21T15:31:54.537Z,1.70
2022-08-21T15:34:23.311Z,2.20
2022-08-21T15:36:57.024Z,1.95
2022-08-21T15:39:30.173Z,1.65
2022-08-21T15:41:59.006Z,1.80
2022-08-21T15:44:27.546Z,1.70
2022-08-21T15:46:55.433Z,1.75
2022-08-21T15:49:22.954Z,1.50
2022-08-21T15:51:50.506Z,2.10
2022-08-21T15:54:17.995Z,1.73
2022-08-21T15:56:50.024Z,1.75
2022-08-21T15:59:19.653Z,2.00
2022-08-21T16:01:47.828Z,1.90
2022-08-21T16:04:33.533Z,1.55
2022-08-21T16:07:07.723Z,2.10
2022-08-21T16:09:37.196Z,1.77
2022-08-21T16:12:05.676Z,1.75
2022-08-21T16:14:34.535Z,2.08
2022-08-21T16:17:02.121Z,1.83
2022-08-21T16:19:30.443Z,2.30
2022-08-21T16:21:58.108Z,1.90
2022-08-21T16:24:25.941Z,1.55
2022-08-21T16:26:57.691Z,1.63
2022-08-21T16:29:28.769Z,1.85
2022-08-21T16:31:56.863Z,1.90
2022-08-21T16:34:25.444Z,2.13
2022-08-21T16:36:53.141Z,1.73
2022-08-21T16:39:20.790Z,2.08
2022-08-21T16:41:50.385Z,1.95
2022-08-21T16:44:18.217Z,1.70
2022-08-21T16:46:45.886Z,1.92
2022-08-21T16:49:13.515Z,1.92
2022-08-21T16:51:41.472Z,1.80
2022-08-21T16:54:08.900Z,2.05
2022-08-21T16:56:40.061Z,1.70
2022-08-21T16:59:08.431Z,1.90
2022-08-21T17:01:38.753Z,1.63
2022-08-21T17:04:06.352Z,1.80
2022-08-21T17:06:33.853Z,1.50
2022-08-21T17:09:04.232Z,1.40
2022-08-21T17:11:37.741Z,1.60
2022-08-21T17:14:17.148Z,1.40
2022-08-21T17:16:46.218Z,1.60
2022-08-21T17:19:15.700Z,2.15
2022-08-21T17:21:43.499Z,1.70
2022-08-21T17:24:13.295Z,1.90
2022-08-21T17:26:40.756Z,1.63
2022-08-21T17:29:10.161Z,1.75
2022-08-21T17:31:38.417Z,2.05
2022-08-21T17:34:07.077Z,1.83
2022-08-21T17:36:34.630Z,1.85
2022-08-21T17:39:02.081Z,1.88
2022-08-21T17:41:29.676Z,2.00
2022-08-21T17:43:56.995Z,1.77
2022-08-21T17:46:26.184Z,1.60
2022-08-21T17:48:53.542Z,1.48
2022-08-21T17:51:20.872Z,1.65
2022-08-21T17:53:48.274Z,1.70
2022-08-21T17:56:16.588Z,1.95
2022-08-21T17:58:46.814Z,1.80
2022-08-21T18:01:14.334Z,1.90
2022-08-21T18:03:41.807Z,2.00
2022-08-21T18:06:09.809Z,2.42
2022-08-21T18:08:38.133Z,1.83
2022-08-21T18:11:05.756Z,1.90
2022-08-21T18:13:38.667Z,1.50
2022-08-21T18:16:09.138Z,1.75
2022-08-21T18:18:42.014Z,1.63
2022-08-21T18:21:10.363Z,1.80
2022-08-21T18:23:44.308Z,1.90
2022-08-21T18:26:14.462Z,1.70
2022-08-21T18:28:41.894Z,1.67
2022-08-21T18:31:10.365Z,1.90
2022-08-21T18:33:38.799Z,1.83
2022-08-21T18:36:06.521Z,1.58
2022-08-21T18:38:35.684Z,7.68
2022-08-21T18:41:03.531Z,2.10
2022-08-21T18:43:37.954Z,1.77
2022-08-21T18:46:05.581Z,1.40
2022-08-21T18:48:33.262Z,1.63
2022-08-21T18:51:01.772Z,1.95
2022-08-21T18:53:29.796Z,2.20
2022-08-21T18:56:05.000Z,3.00
2022-08-21T18:58:33.644Z,2.35
2022-08-21T19:01:01.165Z,2.35
2022-08-21T19:03:28.822Z,1.75
2022-08-21T19:05:56.164Z,1.80
2022-08-21T19:08:25.267Z,1.90
2022-08-21T19:10:56.354Z,1.60
2022-08-21T19:13:23.975Z,1.85
2022-08-21T19:15:53.256Z,13.63
2022-08-21T19:18:28.027Z,32.50
2022-08-21T19:21:09.382Z,19.77
2022-08-21T19:23:37.905Z,7.03
2022-08-21T19:26:13.174Z,27.90
2022-08-21T19:28:44.709Z,18.20
2022-08-21T19:31:16.363Z,14.40
2022-08-21T19:33:46.857Z,22.88
2022-08-21T19:36:18.305Z,20.02
2022-08-21T19:38:46.230Z,7.82
2022-08-21T19:41:15.065Z,4.65
2022-08-21T19:43:44.760Z,2.88
2022-08-21T19:46:12.869Z,2.88
2022-08-21T19:48:40.693Z,17.60
2022-08-21T19:51:08.373Z,19.10
2022-08-21T19:53:35.926Z,13.82
2022-08-21T19:56:03.643Z,3.58
2022-08-21T19:58:39.630Z,2.58
2022-08-21T20:01:11.515Z,1.80
2022-08-21T20:03:44.220Z,1.83
2022-08-21T20:06:12.086Z,2.03
2022-08-21T20:08:39.536Z,1.90
2022-08-21T20:11:06.957Z,2.13
2022-08-21T20:13:36.655Z,2.30
2022-08-21T20:16:08.027Z,2.30
2022-08-21T20:18:36.830Z,2.33
2022-08-21T20:21:08.724Z,2.20
2022-08-21T20:23:36.483Z,2.22
2022-08-21T20:26:10.750Z,2.13
2022-08-21T20:31:26.179Z,2.20
2022-08-21T20:33:55.832Z,2.00
2022-08-21T20:36:23.381Z,2.10
2022-08-21T20:38:54.446Z,2.05
2022-08-21T20:44:12.747Z,1.83
2022-08-21T20:46:40.714Z,2.35
2022-08-21T20:49:09.715Z,2.33
2022-08-21T20:51:48.543Z,2.00
2022-08-21T20:54:36.275Z,2.05
2022-08-21T20:57:16.434Z,2.35
2022-08-21T20:59:54.560Z,2.00
2022-08-21T21:02:37.346Z,2.50
2022-08-21T21:05:06.083Z,2.10
2022-08-21T21:07:38.302Z,1.88
2022-08-21T21:10:08.059Z,2.00
2022-08-21T21:12:41.794Z,2.08
2022-08-21T21:15:15.963Z,1.98
2022-08-21T21:17:55.970Z,2.28
2022-08-21T21:20:39.411Z,2.65
2022-08-21T21:23:16.862Z,2.20
2022-08-21T21:25:58.807Z,2.40
2022-08-21T21:29:01.775Z,2.42
2022-08-21T21:31:33.491Z,2.10
2022-08-21T21:34:01.006Z,2.30
2022-08-21T21:39:39.380Z,2.20
2022-08-21T21:42:07.058Z,2.60
2022-08-21T21:44:38.354Z,2.10
2022-08-21T21:47:10.481Z,2.13
2022-08-21T21:49:40.484Z,2.85
2022-08-21T21:52:16.991Z,2.58
2022-08-21T21:55:03.989Z,2.45
2022-08-21T21:57:43.895Z,2.45
2022-08-21T22:00:18.378Z,2.50
2022-08-21T22:02:48.908Z,2.30
2022-08-21T22:05:25.791Z,2.40
2022-08-21T22:07:53.264Z,2.17
2022-08-21T22:10:43.265Z,2.55
2022-08-21T22:13:11.269Z,2.47
2022-08-21T22:15:41.437Z,2.60
2022-08-21T22:18:11.060Z,2.75
2022-08-21T22:20:57.536Z,3.05
2022-08-21T22:23:30.074Z,2.45
2022-08-21T22:26:03.301Z,2.65
2022-08-21T22:28:31.612Z,2.92
2022-08-21T22:31:22.725Z,2.50
2022-08-21T22:34:22.705Z,2.88
2022-08-21T22:37:01.295Z,2.55
2022-08-21T22:39:39.056Z,2.80
2022-08-21T22:42:10.980Z,2.60
2022-08-21T22:44:48.637Z,3.17
2022-08-21T22:47:22.958Z,2.80
2022-08-21T22:49:52.793Z,2.90
2022-08-21T22:52:23.672Z,3.05
2022-08-21T22:54:53.344Z,2.97
2022-08-21T22:57:34.829Z,2.97
2022-08-21T23:00:05.236Z,3.30
2022-08-21T23:02:32.729Z,3.30
2022-08-21T23:05:01.279Z,2.83
2022-08-21T23:07:33.445Z,3.65
2022-08-21T23:10:00.952Z,3.00
2022-08-21T23:12:43.773Z,4.25
2022-08-21T23:15:17.958Z,3.22
2022-08-21T23:17:49.860Z,3.47
2022-08-21T23:20:56.178Z,3.67
2022-08-21T23:26:36.646Z,3.58
2022-08-21T23:29:07.868Z,3.60
2022-08-21T23:31:45.257Z,3.17
2022-08-21T23:34:19.699Z,3.28
2022-08-21T23:39:51.499Z,3.42
2022-08-21T23:42:25.300Z,3.20
2022-08-21T23:44:52.802Z,3.65
2022-08-21T23:47:20.438Z,3.45
2022-08-21T23:49:47.858Z,3.72
2022-08-21T23:52:36.166Z,3.72
2022-08-21T23:55:12.525Z,3.70
2022-08-21T23:57:40.016Z,4.00
